sensor_id;sensor_type;location;lat;lon;timestamp;P1;durP1;ratioP1;P2;durP2;ratioP2
85121;SDS011;75480;52.260;20.916;2024-01-30T00:00:05;36.47;;;18.20;;
85121;SDS011;75480;52.260;20.916;2024-01-30T00:01:37;37.28;;;18.08;;
85121;SDS011;75480;52.260;20.916;2024-01-30T00:03:07;38.70;;;18.02;;
85121;SDS011;75480;52.260;20.916;2024-01-30T00:04:38;39.75;;;19.08;;
85121;SDS011;75480;52.260;20.916;2024-01-30T00:06:09;38.83;;;18.55;;
85121;SDS011;75480;52.260;20.916;2024-01-30T00:07:39;37.33;;;17.92;;
85121;SDS011;75480;52.260;20.916;2024-01-30T00:09:10;38.58;;;18.33;;
85121;SDS011;75480;52.260;20.916;2024-01-30T00:10:41;38.55;;;17.48;;
85121;SDS011;75480;52.260;20.916;2024-01-30T00:12:11;38.05;;;17.73;;
85121;SDS011;75480;52.260;20.916;2024-01-30T00:13:42;38.00;;;17.88;;
85121;SDS011;75480;52.260;20.916;2024-01-30T00:15:12;40.10;;;19.08;;
85121;SDS011;75480;52.260;20.916;2024-01-30T00:16:43;41.17;;;18.55;;
85121;SDS011;75480;52.260;20.916;2024-01-30T00:18:14;41.75;;;18.73;;
85121;SDS011;75480;52.260;20.916;2024-01-30T00:19:44;37.83;;;17.42;;
85121;SDS011;75480;52.260;20.916;2024-01-30T00:21:15;37.08;;;18.35;;
85121;SDS011;75480;52.260;20.916;2024-01-30T00:22:46;37.78;;;18.20;;
85121;SDS011;75480;52.260;20.916;2024-01-30T00:24:16;40.42;;;18.67;;
85121;SDS011;75480;52.260;20.916;2024-01-30T00:25:47;38.42;;;18.90;;
85121;SDS011;75480;52.260;20.916;2024-01-30T00:27:18;39.33;;;18.27;;
85121;SDS011;75480;52.260;20.916;2024-01-30T00:28:48;40.53;;;18.92;;
85121;SDS011;75480;52.260;20.916;2024-01-30T00:30:20;46.03;;;19.58;;
85121;SDS011;75480;52.260;20.916;2024-01-30T00:31:51;36.20;;;17.02;;
85121;SDS011;75480;52.260;20.916;2024-01-30T00:33:21;43.38;;;19.05;;
85121;SDS011;75480;52.260;20.916;2024-01-30T00:34:52;40.83;;;18.27;;
85121;SDS011;75480;52.260;20.916;2024-01-30T00:36:22;40.90;;;17.27;;
85121;SDS011;75480;52.260;20.916;2024-01-30T00:37:53;40.28;;;18.65;;
85121;SDS011;75480;52.260;20.916;2024-01-30T00:39:24;41.47;;;19.33;;
85121;SDS011;75480;52.260;20.916;2024-01-30T00:40:54;39.80;;;18.65;;
85121;SDS011;75480;52.260;20.916;2024-01-30T00:42:25;39.90;;;18.67;;
85121;SDS011;75480;52.260;20.916;2024-01-30T00:43:56;37.00;;;18.33;;
85121;SDS011;75480;52.260;20.916;2024-01-30T00:45:27;40.83;;;18.80;;
85121;SDS011;75480;52.260;20.916;2024-01-30T00:46:57;35.83;;;18.73;;
85121;SDS011;75480;52.260;20.916;2024-01-30T00:48:28;42.10;;;18.90;;
85121;SDS011;75480;52.260;20.916;2024-01-30T00:49:59;39.17;;;18.08;;
85121;SDS011;75480;52.260;20.916;2024-01-30T00:51:29;39.65;;;18.50;;
85121;SDS011;75480;52.260;20.916;2024-01-30T00:53:00;37.50;;;19.58;;
85121;SDS011;75480;52.260;20.916;2024-01-30T00:54:31;42.28;;;19.40;;
85121;SDS011;75480;52.260;20.916;2024-01-30T00:56:01;39.25;;;19.10;;
85121;SDS011;75480;52.260;20.916;2024-01-30T00:57:32;36.13;;;18.08;;
85121;SDS011;75480;52.260;20.916;2024-01-30T00:59:03;36.03;;;18.13;;
85121;SDS011;75480;52.260;20.916;2024-01-30T01:00:33;42.60;;;19.35;;
85121;SDS011;75480;52.260;20.916;2024-01-30T01:02:04;41.85;;;19.08;;
85121;SDS011;75480;52.260;20.916;2024-01-30T01:03:36;42.67;;;19.05;;
85121;SDS011;75480;52.260;20.916;2024-01-30T01:05:07;33.53;;;17.05;;
85121;SDS011;75480;52.260;20.916;2024-01-30T01:06:38;41.90;;;18.88;;
85121;SDS011;75480;52.260;20.916;2024-01-30T01:08:09;38.22;;;18.20;;
85121;SDS011;75480;52.260;20.916;2024-01-30T01:09:39;36.10;;;18.20;;
85121;SDS011;75480;52.260;20.916;2024-01-30T01:11:10;40.00;;;18.98;;
85121;SDS011;75480;52.260;20.916;2024-01-30T01:12:41;39.45;;;20.15;;
85121;SDS011;75480;52.260;20.916;2024-01-30T01:14:12;34.03;;;17.92;;
85121;SDS011;75480;52.260;20.916;2024-01-30T01:15:43;37.20;;;18.90;;
85121;SDS011;75480;52.260;20.916;2024-01-30T01:17:13;39.85;;;18.58;;
85121;SDS011;75480;52.260;20.916;2024-01-30T01:18:44;38.75;;;18.95;;
85121;SDS011;75480;52.260;20.916;2024-01-30T01:20:14;41.20;;;19.23;;
85121;SDS011;75480;52.260;20.916;2024-01-30T01:21:45;39.25;;;18.23;;
85121;SDS011;75480;52.260;20.916;2024-01-30T01:23:18;41.35;;;20.00;;
85121;SDS011;75480;52.260;20.916;2024-01-30T01:24:49;40.55;;;18.40;;
85121;SDS011;75480;52.260;20.916;2024-01-30T01:26:19;38.30;;;18.00;;
85121;SDS011;75480;52.260;20.916;2024-01-30T01:27:50;39.08;;;18.83;;
85121;SDS011;75480;52.260;20.916;2024-01-30T01:29:24;40.05;;;18.23;;
85121;SDS011;75480;52.260;20.916;2024-01-30T01:31:01;36.83;;;18.23;;
85121;SDS011;75480;52.260;20.916;2024-01-30T01:32:35;43.42;;;18.40;;
85121;SDS011;75480;52.260;20.916;2024-01-30T01:34:06;39.90;;;18.60;;
85121;SDS011;75480;52.260;20.916;2024-01-30T01:35:37;37.42;;;17.75;;
85121;SDS011;75480;52.260;20.916;2024-01-30T01:37:08;38.85;;;19.30;;
85121;SDS011;75480;52.260;20.916;2024-01-30T01:38:39;38.03;;;18.40;;
85121;SDS011;75480;52.260;20.916;2024-01-30T01:40:09;40.75;;;17.90;;
85121;SDS011;75480;52.260;20.916;2024-01-30T01:41:40;40.70;;;20.73;;
85121;SDS011;75480;52.260;20.916;2024-01-30T01:43:11;37.83;;;18.23;;
85121;SDS011;75480;52.260;20.916;2024-01-30T01:44:41;37.28;;;17.75;;
85121;SDS011;75480;52.260;20.916;2024-01-30T01:46:12;43.22;;;20.10;;
85121;SDS011;75480;52.260;20.916;2024-01-30T01:47:43;39.53;;;18.42;;
85121;SDS011;75480;52.260;20.916;2024-01-30T01:49:16;39.30;;;18.30;;
85121;SDS011;75480;52.260;20.916;2024-01-30T01:50:46;38.67;;;18.75;;
85121;SDS011;75480;52.260;20.916;2024-01-30T01:52:17;36.15;;;17.77;;
85121;SDS011;75480;52.260;20.916;2024-01-30T01:53:48;37.47;;;18.83;;
85121;SDS011;75480;52.260;20.916;2024-01-30T01:55:19;44.35;;;19.65;;
85121;SDS011;75480;52.260;20.916;2024-01-30T01:56:55;42.83;;;18.92;;
85121;SDS011;75480;52.260;20.916;2024-01-30T01:58:26;36.55;;;17.63;;
85121;SDS011;75480;52.260;20.916;2024-01-30T01:59:59;39.47;;;18.13;;
85121;SDS011;75480;52.260;20.916;2024-01-30T02:01:32;37.10;;;17.73;;
85121;SDS011;75480;52.260;20.916;2024-01-30T02:03:03;39.50;;;17.75;;
85121;SDS011;75480;52.260;20.916;2024-01-30T02:04:35;35.70;;;16.30;;
85121;SDS011;75480;52.260;20.916;2024-01-30T02:06:05;38.40;;;18.30;;
85121;SDS011;75480;52.260;20.916;2024-01-30T02:07:36;38.88;;;19.13;;
85121;SDS011;75480;52.260;20.916;2024-01-30T02:09:07;36.38;;;17.38;;
85121;SDS011;75480;52.260;20.916;2024-01-30T02:12:10;41.72;;;17.65;;
85121;SDS011;75480;52.260;20.916;2024-01-30T02:13:40;39.45;;;17.98;;
85121;SDS011;75480;52.260;20.916;2024-01-30T02:15:13;38.33;;;17.95;;
85121;SDS011;75480;52.260;20.916;2024-01-30T02:16:44;38.25;;;18.65;;
85121;SDS011;75480;52.260;20.916;2024-01-30T02:18:14;37.97;;;17.88;;
85121;SDS011;75480;52.260;20.916;2024-01-30T02:19:45;36.40;;;17.02;;
85121;SDS011;75480;52.260;20.916;2024-01-30T02:21:16;37.75;;;18.23;;
85121;SDS011;75480;52.260;20.916;2024-01-30T02:22:47;34.95;;;16.83;;
85121;SDS011;75480;52.260;20.916;2024-01-30T02:24:19;36.97;;;18.00;;
85121;SDS011;75480;52.260;20.916;2024-01-30T02:25:49;38.75;;;17.60;;
85121;SDS011;75480;52.260;20.916;2024-01-30T02:27:23;38.47;;;17.80;;
85121;SDS011;75480;52.260;20.916;2024-01-30T02:28:53;40.33;;;17.92;;
85121;SDS011;75480;52.260;20.916;2024-01-30T02:30:24;36.13;;;17.60;;
85121;SDS011;75480;52.260;20.916;2024-01-30T02:31:55;42.15;;;16.55;;
85121;SDS011;75480;52.260;20.916;2024-01-30T02:33:25;41.05;;;18.13;;
85121;SDS011;75480;52.260;20.916;2024-01-30T02:34:56;37.83;;;17.30;;
85121;SDS011;75480;52.260;20.916;2024-01-30T02:36:26;39.67;;;18.13;;
85121;SDS011;75480;52.260;20.916;2024-01-30T02:37:57;45.40;;;18.75;;
85121;SDS011;75480;52.260;20.916;2024-01-30T02:39:28;40.67;;;18.85;;
85121;SDS011;75480;52.260;20.916;2024-01-30T02:40:58;41.72;;;18.27;;
85121;SDS011;75480;52.260;20.916;2024-01-30T02:42:29;38.78;;;18.73;;
85121;SDS011;75480;52.260;20.916;2024-01-30T02:43:59;42.17;;;18.50;;
85121;SDS011;75480;52.260;20.916;2024-01-30T02:45:30;37.42;;;18.65;;
85121;SDS011;75480;52.260;20.916;2024-01-30T02:47:01;40.30;;;18.10;;
85121;SDS011;75480;52.260;20.916;2024-01-30T02:48:31;34.25;;;17.65;;
85121;SDS011;75480;52.260;20.916;2024-01-30T02:50:02;38.53;;;16.77;;
85121;SDS011;75480;52.260;20.916;2024-01-30T02:51:33;31.23;;;16.48;;
85121;SDS011;75480;52.260;20.916;2024-01-30T02:53:04;38.13;;;17.40;;
85121;SDS011;75480;52.260;20.916;2024-01-30T02:54:34;39.42;;;18.15;;
85121;SDS011;75480;52.260;20.916;2024-01-30T02:56:05;35.08;;;17.08;;
85121;SDS011;75480;52.260;20.916;2024-01-30T02:57:36;34.15;;;17.63;;
85121;SDS011;75480;52.260;20.916;2024-01-30T02:59:06;37.50;;;18.77;;
85121;SDS011;75480;52.260;20.916;2024-01-30T03:00:37;36.35;;;16.50;;
85121;SDS011;75480;52.260;20.916;2024-01-30T03:02:08;41.42;;;19.02;;
85121;SDS011;75480;52.260;20.916;2024-01-30T03:03:38;33.40;;;16.40;;
85121;SDS011;75480;52.260;20.916;2024-01-30T03:05:11;39.15;;;18.10;;
85121;SDS011;75480;52.260;20.916;2024-01-30T03:06:44;35.15;;;17.38;;
85121;SDS011;75480;52.260;20.916;2024-01-30T03:08:16;35.03;;;17.35;;
85121;SDS011;75480;52.260;20.916;2024-01-30T03:09:47;37.47;;;17.50;;
85121;SDS011;75480;52.260;20.916;2024-01-30T03:11:18;32.70;;;17.15;;
85121;SDS011;75480;52.260;20.916;2024-01-30T03:12:49;37.50;;;17.58;;
85121;SDS011;75480;52.260;20.916;2024-01-30T03:14:19;37.58;;;17.67;;
85121;SDS011;75480;52.260;20.916;2024-01-30T03:15:50;35.95;;;16.38;;
85121;SDS011;75480;52.260;20.916;2024-01-30T03:17:21;36.67;;;16.95;;
85121;SDS011;75480;52.260;20.916;2024-01-30T03:18:51;36.28;;;16.60;;
85121;SDS011;75480;52.260;20.916;2024-01-30T03:20:22;38.75;;;17.35;;
85121;SDS011;75480;52.260;20.916;2024-01-30T03:21:53;37.33;;;16.75;;
85121;SDS011;75480;52.260;20.916;2024-01-30T03:23:23;34.17;;;17.15;;
85121;SDS011;75480;52.260;20.916;2024-01-30T03:24:54;38.63;;;17.92;;
85121;SDS011;75480;52.260;20.916;2024-01-30T03:26:25;38.13;;;18.55;;
85121;SDS011;75480;52.260;20.916;2024-01-30T03:27:56;35.33;;;17.80;;
85121;SDS011;75480;52.260;20.916;2024-01-30T03:29:26;35.53;;;18.15;;
85121;SDS011;75480;52.260;20.916;2024-01-30T03:30:56;38.92;;;17.80;;
85121;SDS011;75480;52.260;20.916;2024-01-30T03:32:27;37.17;;;17.70;;
85121;SDS011;75480;52.260;20.916;2024-01-30T03:33:58;40.65;;;17.67;;
85121;SDS011;75480;52.260;20.916;2024-01-30T03:35:28;38.60;;;17.98;;
85121;SDS011;75480;52.260;20.916;2024-01-30T03:36:59;37.72;;;17.27;;
85121;SDS011;75480;52.260;20.916;2024-01-30T03:38:30;35.53;;;16.42;;
85121;SDS011;75480;52.260;20.916;2024-01-30T03:40:02;35.97;;;16.25;;
85121;SDS011;75480;52.260;20.916;2024-01-30T03:41:34;38.92;;;16.15;;
85121;SDS011;75480;52.260;20.916;2024-01-30T03:43:04;34.50;;;16.85;;
85121;SDS011;75480;52.260;20.916;2024-01-30T03:44:35;41.65;;;17.08;;
85121;SDS011;75480;52.260;20.916;2024-01-30T03:46:06;32.85;;;15.95;;
85121;SDS011;75480;52.260;20.916;2024-01-30T03:47:37;37.25;;;17.30;;
85121;SDS011;75480;52.260;20.916;2024-01-30T03:49:07;38.53;;;17.33;;
85121;SDS011;75480;52.260;20.916;2024-01-30T03:50:38;38.78;;;17.08;;
85121;SDS011;75480;52.260;20.916;2024-01-30T03:52:09;39.40;;;17.23;;
85121;SDS011;75480;52.260;20.916;2024-01-30T03:53:42;37.75;;;17.35;;
85121;SDS011;75480;52.260;20.916;2024-01-30T03:55:14;36.40;;;17.08;;
85121;SDS011;75480;52.260;20.916;2024-01-30T03:56:44;39.08;;;17.30;;
85121;SDS011;75480;52.260;20.916;2024-01-30T03:58:14;33.38;;;18.20;;
85121;SDS011;75480;52.260;20.916;2024-01-30T03:59:45;39.00;;;17.25;;
85121;SDS011;75480;52.260;20.916;2024-01-30T04:01:16;30.10;;;17.02;;
85121;SDS011;75480;52.260;20.916;2024-01-30T04:02:46;38.58;;;17.27;;
85121;SDS011;75480;52.260;20.916;2024-01-30T04:04:17;34.65;;;17.27;;
85121;SDS011;75480;52.260;20.916;2024-01-30T04:05:48;39.30;;;16.42;;
85121;SDS011;75480;52.260;20.916;2024-01-30T04:07:19;42.92;;;17.17;;
85121;SDS011;75480;52.260;20.916;2024-01-30T04:08:49;39.92;;;17.13;;
85121;SDS011;75480;52.260;20.916;2024-01-30T04:10:20;36.50;;;16.52;;
85121;SDS011;75480;52.260;20.916;2024-01-30T04:11:50;38.92;;;16.65;;
85121;SDS011;75480;52.260;20.916;2024-01-30T04:13:21;39.40;;;17.35;;
85121;SDS011;75480;52.260;20.916;2024-01-30T04:14:52;32.75;;;16.08;;
85121;SDS011;75480;52.260;20.916;2024-01-30T04:16:23;34.60;;;15.57;;
85121;SDS011;75480;52.260;20.916;2024-01-30T04:17:54;34.30;;;17.20;;
85121;SDS011;75480;52.260;20.916;2024-01-30T04:19:28;33.78;;;16.00;;
85121;SDS011;75480;52.260;20.916;2024-01-30T04:20:58;38.65;;;16.13;;
85121;SDS011;75480;52.260;20.916;2024-01-30T04:22:29;38.60;;;16.60;;
85121;SDS011;75480;52.260;20.916;2024-01-30T04:24:00;40.45;;;17.13;;
85121;SDS011;75480;52.260;20.916;2024-01-30T04:25:30;35.83;;;17.25;;
85121;SDS011;75480;52.260;20.916;2024-01-30T04:27:04;35.67;;;16.73;;
85121;SDS011;75480;52.260;20.916;2024-01-30T04:28:34;36.58;;;15.80;;
85121;SDS011;75480;52.260;20.916;2024-01-30T04:30:05;34.42;;;16.13;;
85121;SDS011;75480;52.260;20.916;2024-01-30T04:31:36;33.75;;;16.58;;
85121;SDS011;75480;52.260;20.916;2024-01-30T04:33:07;32.17;;;15.73;;
85121;SDS011;75480;52.260;20.916;2024-01-30T04:34:37;34.20;;;16.05;;
85121;SDS011;75480;52.260;20.916;2024-01-30T04:36:08;37.28;;;16.52;;
85121;SDS011;75480;52.260;20.916;2024-01-30T04:37:42;35.47;;;17.50;;
85121;SDS011;75480;52.260;20.916;2024-01-30T04:39:12;38.58;;;17.67;;
85121;SDS011;75480;52.260;20.916;2024-01-30T04:40:43;37.45;;;16.38;;
85121;SDS011;75480;52.260;20.916;2024-01-30T04:42:14;35.60;;;15.60;;
85121;SDS011;75480;52.260;20.916;2024-01-30T04:43:44;36.75;;;15.65;;
85121;SDS011;75480;52.260;20.916;2024-01-30T04:45:15;33.05;;;16.05;;
85121;SDS011;75480;52.260;20.916;2024-01-30T04:46:46;37.80;;;17.23;;
85121;SDS011;75480;52.260;20.916;2024-01-30T04:48:16;34.60;;;16.65;;
85121;SDS011;75480;52.260;20.916;2024-01-30T04:49:47;33.35;;;16.30;;
85121;SDS011;75480;52.260;20.916;2024-01-30T04:51:18;34.55;;;17.55;;
85121;SDS011;75480;52.260;20.916;2024-01-30T04:52:49;37.65;;;16.50;;
85121;SDS011;75480;52.260;20.916;2024-01-30T04:54:19;30.98;;;16.60;;
85121;SDS011;75480;52.260;20.916;2024-01-30T04:55:50;40.03;;;16.83;;
85121;SDS011;75480;52.260;20.916;2024-01-30T04:57:20;35.22;;;16.67;;
85121;SDS011;75480;52.260;20.916;2024-01-30T04:58:51;34.97;;;16.80;;
85121;SDS011;75480;52.260;20.916;2024-01-30T05:00:22;37.60;;;18.77;;
85121;SDS011;75480;52.260;20.916;2024-01-30T05:01:52;38.03;;;18.02;;
85121;SDS011;75480;52.260;20.916;2024-01-30T05:03:23;37.15;;;16.70;;
85121;SDS011;75480;52.260;20.916;2024-01-30T05:04:54;36.63;;;17.92;;
85121;SDS011;75480;52.260;20.916;2024-01-30T05:06:27;36.78;;;15.93;;
85121;SDS011;75480;52.260;20.916;2024-01-30T05:07:58;37.05;;;17.65;;
85121;SDS011;75480;52.260;20.916;2024-01-30T05:09:28;36.88;;;18.33;;
85121;SDS011;75480;52.260;20.916;2024-01-30T05:11:02;35.35;;;17.48;;
85121;SDS011;75480;52.260;20.916;2024-01-30T05:12:34;40.58;;;18.58;;
85121;SDS011;75480;52.260;20.916;2024-01-30T05:14:05;35.60;;;18.13;;
85121;SDS011;75480;52.260;20.916;2024-01-30T05:15:36;38.13;;;17.95;;
85121;SDS011;75480;52.260;20.916;2024-01-30T05:17:07;41.20;;;18.80;;
85121;SDS011;75480;52.260;20.916;2024-01-30T05:18:40;36.75;;;16.27;;
85121;SDS011;75480;52.260;20.916;2024-01-30T05:20:11;41.55;;;17.90;;
85121;SDS011;75480;52.260;20.916;2024-01-30T05:21:42;36.08;;;16.45;;
85121;SDS011;75480;52.260;20.916;2024-01-30T05:23:12;35.80;;;17.10;;
85121;SDS011;75480;52.260;20.916;2024-01-30T05:24:43;38.60;;;16.23;;
85121;SDS011;75480;52.260;20.916;2024-01-30T05:26:14;36.58;;;16.92;;
85121;SDS011;75480;52.260;20.916;2024-01-30T05:27:44;37.15;;;16.95;;
85121;SDS011;75480;52.260;20.916;2024-01-30T05:29:15;37.85;;;16.42;;
85121;SDS011;75480;52.260;20.916;2024-01-30T05:30:46;30.65;;;15.38;;
85121;SDS011;75480;52.260;20.916;2024-01-30T05:32:16;37.15;;;17.00;;
85121;SDS011;75480;52.260;20.916;2024-01-30T05:33:47;36.17;;;17.20;;
85121;SDS011;75480;52.260;20.916;2024-01-30T05:35:18;33.17;;;16.17;;
85121;SDS011;75480;52.260;20.916;2024-01-30T05:36:51;35.65;;;15.43;;
85121;SDS011;75480;52.260;20.916;2024-01-30T05:38:21;34.38;;;16.40;;
85121;SDS011;75480;52.260;20.916;2024-01-30T05:39:52;33.97;;;16.52;;
85121;SDS011;75480;52.260;20.916;2024-01-30T05:41:23;35.83;;;15.32;;
85121;SDS011;75480;52.260;20.916;2024-01-30T05:42:53;35.88;;;17.10;;
85121;SDS011;75480;52.260;20.916;2024-01-30T05:44:24;35.35;;;16.02;;
85121;SDS011;75480;52.260;20.916;2024-01-30T05:45:55;32.40;;;16.55;;
85121;SDS011;75480;52.260;20.916;2024-01-30T05:47:25;35.50;;;16.00;;
85121;SDS011;75480;52.260;20.916;2024-01-30T05:48:56;35.47;;;16.73;;
85121;SDS011;75480;52.260;20.916;2024-01-30T05:50:27;34.15;;;16.63;;
85121;SDS011;75480;52.260;20.916;2024-01-30T05:51:58;34.03;;;16.55;;
85121;SDS011;75480;52.260;20.916;2024-01-30T05:53:29;37.22;;;17.38;;
85121;SDS011;75480;52.260;20.916;2024-01-30T05:54:59;35.25;;;16.92;;
85121;SDS011;75480;52.260;20.916;2024-01-30T05:56:30;35.60;;;16.52;;
85121;SDS011;75480;52.260;20.916;2024-01-30T05:58:01;36.80;;;16.42;;
85121;SDS011;75480;52.260;20.916;2024-01-30T05:59:32;33.00;;;15.13;;
85121;SDS011;75480;52.260;20.916;2024-01-30T06:01:03;36.00;;;17.27;;
85121;SDS011;75480;52.260;20.916;2024-01-30T06:02:38;37.25;;;16.90;;
85121;SDS011;75480;52.260;20.916;2024-01-30T06:04:08;38.85;;;17.40;;
85121;SDS011;75480;52.260;20.916;2024-01-30T06:05:39;36.17;;;16.17;;
85121;SDS011;75480;52.260;20.916;2024-01-30T06:07:10;33.08;;;16.25;;
85121;SDS011;75480;52.260;20.916;2024-01-30T06:08:40;34.13;;;16.88;;
85121;SDS011;75480;52.260;20.916;2024-01-30T06:10:11;36.17;;;17.50;;
85121;SDS011;75480;52.260;20.916;2024-01-30T06:11:42;36.95;;;16.20;;
85121;SDS011;75480;52.260;20.916;2024-01-30T06:13:12;36.90;;;16.58;;
85121;SDS011;75480;52.260;20.916;2024-01-30T06:14:43;35.13;;;16.63;;
85121;SDS011;75480;52.260;20.916;2024-01-30T06:16:13;39.75;;;16.08;;
85121;SDS011;75480;52.260;20.916;2024-01-30T06:17:44;34.85;;;15.80;;
85121;SDS011;75480;52.260;20.916;2024-01-30T06:19:15;38.10;;;18.00;;
85121;SDS011;75480;52.260;20.916;2024-01-30T06:20:46;37.75;;;16.17;;
85121;SDS011;75480;52.260;20.916;2024-01-30T06:22:16;40.88;;;17.30;;
85121;SDS011;75480;52.260;20.916;2024-01-30T06:23:47;33.25;;;16.27;;
85121;SDS011;75480;52.260;20.916;2024-01-30T06:25:18;35.17;;;16.08;;
85121;SDS011;75480;52.260;20.916;2024-01-30T06:26:48;34.08;;;15.65;;
85121;SDS011;75480;52.260;20.916;2024-01-30T06:28:19;35.88;;;17.20;;
85121;SDS011;75480;52.260;20.916;2024-01-30T06:29:50;32.08;;;15.80;;
85121;SDS011;75480;52.260;20.916;2024-01-30T06:31:20;34.22;;;16.27;;
85121;SDS011;75480;52.260;20.916;2024-01-30T06:32:50;35.80;;;15.57;;
85121;SDS011;75480;52.260;20.916;2024-01-30T06:34:21;35.35;;;16.00;;
85121;SDS011;75480;52.260;20.916;2024-01-30T06:35:52;34.38;;;16.08;;
85121;SDS011;75480;52.260;20.916;2024-01-30T06:37:22;31.35;;;15.73;;
85121;SDS011;75480;52.260;20.916;2024-01-30T06:38:53;33.00;;;16.13;;
85121;SDS011;75480;52.260;20.916;2024-01-30T06:40:24;35.35;;;16.45;;
85121;SDS011;75480;52.260;20.916;2024-01-30T06:41:54;34.28;;;14.88;;
85121;SDS011;75480;52.260;20.916;2024-01-30T06:43:25;35.00;;;16.52;;
85121;SDS011;75480;52.260;20.916;2024-01-30T06:44:56;36.05;;;17.42;;
85121;SDS011;75480;52.260;20.916;2024-01-30T06:46:26;35.47;;;16.63;;
85121;SDS011;75480;52.260;20.916;2024-01-30T06:47:58;31.77;;;15.50;;
85121;SDS011;75480;52.260;20.916;2024-01-30T06:49:28;36.85;;;17.10;;
85121;SDS011;75480;52.260;20.916;2024-01-30T06:50:59;35.55;;;16.20;;
85121;SDS011;75480;52.260;20.916;2024-01-30T06:52:29;30.65;;;15.32;;
85121;SDS011;75480;52.260;20.916;2024-01-30T06:54:00;33.75;;;16.52;;
85121;SDS011;75480;52.260;20.916;2024-01-30T06:55:31;34.55;;;15.68;;
85121;SDS011;75480;52.260;20.916;2024-01-30T06:57:01;34.80;;;16.75;;
85121;SDS011;75480;52.260;20.916;2024-01-30T06:58:32;33.38;;;16.02;;
85121;SDS011;75480;52.260;20.916;2024-01-30T07:00:03;34.22;;;16.23;;
85121;SDS011;75480;52.260;20.916;2024-01-30T07:01:34;34.88;;;16.90;;
85121;SDS011;75480;52.260;20.916;2024-01-30T07:03:04;33.10;;;14.30;;
85121;SDS011;75480;52.260;20.916;2024-01-30T07:04:35;33.00;;;15.25;;
85121;SDS011;75480;52.260;20.916;2024-01-30T07:06:08;32.22;;;14.90;;
85121;SDS011;75480;52.260;20.916;2024-01-30T07:07:38;34.50;;;15.75;;
85121;SDS011;75480;52.260;20.916;2024-01-30T07:09:09;32.53;;;14.80;;
85121;SDS011;75480;52.260;20.916;2024-01-30T07:10:40;29.40;;;14.27;;
85121;SDS011;75480;52.260;20.916;2024-01-30T07:12:10;34.03;;;16.05;;
85121;SDS011;75480;52.260;20.916;2024-01-30T07:13:41;34.30;;;14.57;;
85121;SDS011;75480;52.260;20.916;2024-01-30T07:15:12;41.78;;;17.10;;
85121;SDS011;75480;52.260;20.916;2024-01-30T07:16:44;32.60;;;15.25;;
85121;SDS011;75480;52.260;20.916;2024-01-30T07:18:15;33.10;;;14.60;;
85121;SDS011;75480;52.260;20.916;2024-01-30T07:19:49;35.67;;;16.40;;
85121;SDS011;75480;52.260;20.916;2024-01-30T07:21:19;38.65;;;16.00;;
85121;SDS011;75480;52.260;20.916;2024-01-30T07:22:52;34.15;;;15.82;;
85121;SDS011;75480;52.260;20.916;2024-01-30T07:24:22;34.15;;;15.88;;
85121;SDS011;75480;52.260;20.916;2024-01-30T07:25:53;36.28;;;16.20;;
85121;SDS011;75480;52.260;20.916;2024-01-30T07:27:23;33.67;;;15.27;;
85121;SDS011;75480;52.260;20.916;2024-01-30T07:28:54;32.35;;;15.05;;
85121;SDS011;75480;52.260;20.916;2024-01-30T07:30:25;30.30;;;16.02;;
85121;SDS011;75480;52.260;20.916;2024-01-30T07:31:55;32.88;;;15.15;;
85121;SDS011;75480;52.260;20.916;2024-01-30T07:33:26;37.58;;;16.35;;
85121;SDS011;75480;52.260;20.916;2024-01-30T07:34:57;29.83;;;15.10;;
85121;SDS011;75480;52.260;20.916;2024-01-30T07:36:27;29.65;;;14.38;;
85121;SDS011;75480;52.260;20.916;2024-01-30T07:37:58;32.13;;;16.40;;
85121;SDS011;75480;52.260;20.916;2024-01-30T07:39:29;27.40;;;14.52;;
85121;SDS011;75480;52.260;20.916;2024-01-30T07:40:59;31.73;;;15.50;;
85121;SDS011;75480;52.260;20.916;2024-01-30T07:42:30;32.63;;;15.45;;
85121;SDS011;75480;52.260;20.916;2024-01-30T07:44:01;31.67;;;15.65;;
85121;SDS011;75480;52.260;20.916;2024-01-30T07:45:32;35.13;;;14.82;;
85121;SDS011;75480;52.260;20.916;2024-01-30T07:47:04;35.20;;;15.82;;
85121;SDS011;75480;52.260;20.916;2024-01-30T07:48:35;30.75;;;15.43;;
85121;SDS011;75480;52.260;20.916;2024-01-30T07:50:06;33.00;;;14.77;;
85121;SDS011;75480;52.260;20.916;2024-01-30T07:51:37;31.05;;;14.73;;
85121;SDS011;75480;52.260;20.916;2024-01-30T07:53:08;31.23;;;15.32;;
85121;SDS011;75480;52.260;20.916;2024-01-30T07:54:38;29.90;;;14.70;;
85121;SDS011;75480;52.260;20.916;2024-01-30T07:56:09;30.67;;;15.13;;
85121;SDS011;75480;52.260;20.916;2024-01-30T07:57:40;29.45;;;14.45;;
85121;SDS011;75480;52.260;20.916;2024-01-30T07:59:10;32.17;;;13.75;;
85121;SDS011;75480;52.260;20.916;2024-01-30T08:00:41;30.45;;;14.05;;
85121;SDS011;75480;52.260;20.916;2024-01-30T08:02:12;30.08;;;13.75;;
85121;SDS011;75480;52.260;20.916;2024-01-30T08:03:43;33.85;;;15.25;;
85121;SDS011;75480;52.260;20.916;2024-01-30T08:05:14;30.80;;;13.82;;
85121;SDS011;75480;52.260;20.916;2024-01-30T08:06:45;29.10;;;14.10;;
85121;SDS011;75480;52.260;20.916;2024-01-30T08:08:15;34.45;;;14.88;;
85121;SDS011;75480;52.260;20.916;2024-01-30T08:09:46;26.70;;;13.65;;
85121;SDS011;75480;52.260;20.916;2024-01-30T08:11:17;29.80;;;14.18;;
85121;SDS011;75480;52.260;20.916;2024-01-30T08:12:49;29.42;;;14.50;;
85121;SDS011;75480;52.260;20.916;2024-01-30T08:14:19;27.25;;;14.27;;
85121;SDS011;75480;52.260;20.916;2024-01-30T08:15:50;31.55;;;14.38;;
85121;SDS011;75480;52.260;20.916;2024-01-30T08:17:21;27.23;;;14.43;;
85121;SDS011;75480;52.260;20.916;2024-01-30T08:18:51;27.63;;;13.32;;
85121;SDS011;75480;52.260;20.916;2024-01-30T08:21:54;34.45;;;14.43;;
85121;SDS011;75480;52.260;20.916;2024-01-30T08:23:26;29.85;;;14.85;;
85121;SDS011;75480;52.260;20.916;2024-01-30T08:24:56;29.50;;;14.48;;
85121;SDS011;75480;52.260;20.916;2024-01-30T08:26:27;28.70;;;13.77;;
85121;SDS011;75480;52.260;20.916;2024-01-30T08:27:58;27.05;;;15.02;;
85121;SDS011;75480;52.260;20.916;2024-01-30T08:29:28;28.33;;;13.60;;
85121;SDS011;75480;52.260;20.916;2024-01-30T08:30:59;28.65;;;15.05;;
85121;SDS011;75480;52.260;20.916;2024-01-30T08:32:30;27.85;;;13.38;;
85121;SDS011;75480;52.260;20.916;2024-01-30T08:34:00;27.83;;;13.38;;
85121;SDS011;75480;52.260;20.916;2024-01-30T08:35:31;29.05;;;14.23;;
85121;SDS011;75480;52.260;20.916;2024-01-30T08:37:03;29.33;;;14.70;;
85121;SDS011;75480;52.260;20.916;2024-01-30T08:38:34;30.63;;;14.00;;
85121;SDS011;75480;52.260;20.916;2024-01-30T08:40:05;25.55;;;13.13;;
85121;SDS011;75480;52.260;20.916;2024-01-30T08:41:36;22.42;;;12.13;;
85121;SDS011;75480;52.260;20.916;2024-01-30T08:43:06;27.73;;;13.93;;
85121;SDS011;75480;52.260;20.916;2024-01-30T08:44:38;30.20;;;13.80;;
85121;SDS011;75480;52.260;20.916;2024-01-30T08:46:09;24.10;;;11.75;;